sensor_id;sensor_type;location;lat;lon;timestamp;P1;durP1;ratioP1;P2;durP2;ratioP2
75535;SDS011;64119;52.070;20.804;2023-02-03T00:00:04;3.40;;;2.10;;
75535;SDS011;64119;52.070;20.804;2023-02-03T00:03:02;3.90;;;1.80;;
75535;SDS011;64119;52.070;20.804;2023-02-03T00:05:30;2.40;;;1.40;;
75535;SDS011;64119;52.070;20.804;2023-02-03T00:07:58;3.70;;;2.10;;
75535;SDS011;64119;52.070;20.804;2023-02-03T00:10:26;4.40;;;1.60;;
75535;SDS011;64119;52.070;20.804;2023-02-03T00:12:54;2.30;;;1.30;;
75535;SDS011;64119;52.070;20.804;2023-02-03T00:15:24;2.90;;;1.50;;
75535;SDS011;64119;52.070;20.804;2023-02-03T00:17:51;2.90;;;1.60;;
75535;SDS011;64119;52.070;20.804;2023-02-03T00:20:20;4.50;;;1.90;;
75535;SDS011;64119;52.070;20.804;2023-02-03T00:22:48;2.80;;;1.20;;
75535;SDS011;64119;52.070;20.804;2023-02-03T00:25:16;3.60;;;1.60;;
75535;SDS011;64119;52.070;20.804;2023-02-03T00:27:44;4.00;;;1.90;;
75535;SDS011;64119;52.070;20.804;2023-02-03T00:30:12;2.00;;;1.40;;
75535;SDS011;64119;52.070;20.804;2023-02-03T00:32:40;4.10;;;1.60;;
75535;SDS011;64119;52.070;20.804;2023-02-03T00:35:08;2.30;;;1.00;;
75535;SDS011;64119;52.070;20.804;2023-02-03T00:37:36;2.40;;;1.40;;
75535;SDS011;64119;52.070;20.804;2023-02-03T00:40:04;3.80;;;1.30;;
75535;SDS011;64119;52.070;20.804;2023-02-03T00:42:35;3.20;;;1.40;;
75535;SDS011;64119;52.070;20.804;2023-02-03T00:45:04;2.70;;;1.40;;
75535;SDS011;64119;52.070;20.804;2023-02-03T00:47:32;2.60;;;1.20;;
75535;SDS011;64119;52.070;20.804;2023-02-03T00:50:00;2.30;;;1.00;;
75535;SDS011;64119;52.070;20.804;2023-02-03T00:52:28;2.40;;;1.10;;
75535;SDS011;64119;52.070;20.804;2023-02-03T00:54:56;4.80;;;1.60;;
75535;SDS011;64119;52.070;20.804;2023-02-03T00:57:23;1.90;;;1.10;;
75535;SDS011;64119;52.070;20.804;2023-02-03T00:59:51;2.80;;;1.20;;
75535;SDS011;64119;52.070;20.804;2023-02-03T01:02:19;1.50;;;0.90;;
75535;SDS011;64119;52.070;20.804;2023-02-03T01:04:47;3.70;;;1.30;;
75535;SDS011;64119;52.070;20.804;2023-02-03T01:07:15;1.90;;;1.10;;
75535;SDS011;64119;52.070;20.804;2023-02-03T01:09:43;4.00;;;1.70;;
75535;SDS011;64119;52.070;20.804;2023-02-03T01:12:11;3.00;;;1.50;;
75535;SDS011;64119;52.070;20.804;2023-02-03T01:14:40;2.70;;;1.60;;
75535;SDS011;64119;52.070;20.804;2023-02-03T01:17:08;4.00;;;1.60;;
75535;SDS011;64119;52.070;20.804;2023-02-03T01:19:36;2.20;;;1.60;;
75535;SDS011;64119;52.070;20.804;2023-02-03T01:22:04;2.60;;;1.60;;
75535;SDS011;64119;52.070;20.804;2023-02-03T01:24:32;3.90;;;2.10;;
75535;SDS011;64119;52.070;20.804;2023-02-03T01:27:00;3.70;;;1.70;;
75535;SDS011;64119;52.070;20.804;2023-02-03T01:29:28;4.70;;;2.50;;
75535;SDS011;64119;52.070;20.804;2023-02-03T01:31:56;2.50;;;1.60;;
75535;SDS011;64119;52.070;20.804;2023-02-03T01:34:23;2.80;;;1.40;;
75535;SDS011;64119;52.070;20.804;2023-02-03T01:36:51;3.90;;;1.90;;
75535;SDS011;64119;52.070;20.804;2023-02-03T01:39:19;3.90;;;1.70;;
75535;SDS011;64119;52.070;20.804;2023-02-03T01:41:47;3.40;;;1.90;;
75535;SDS011;64119;52.070;20.804;2023-02-03T01:50:04;2.60;;;1.50;;
75535;SDS011;64119;52.070;20.804;2023-02-03T01:52:34;5.30;;;2.50;;
75535;SDS011;64119;52.070;20.804;2023-02-03T01:55:04;3.10;;;2.00;;
75535;SDS011;64119;52.070;20.804;2023-02-03T01:57:37;3.40;;;1.70;;
75535;SDS011;64119;52.070;20.804;2023-02-03T02:00:11;2.30;;;1.50;;
75535;SDS011;64119;52.070;20.804;2023-02-03T02:05:24;2.20;;;1.00;;
75535;SDS011;64119;52.070;20.804;2023-02-03T02:07:58;2.90;;;1.90;;
75535;SDS011;64119;52.070;20.804;2023-02-03T02:10:29;4.90;;;2.20;;
75535;SDS011;64119;52.070;20.804;2023-02-03T02:12:58;4.40;;;2.20;;
75535;SDS011;64119;52.070;20.804;2023-02-03T02:15:38;2.80;;;1.60;;
75535;SDS011;64119;52.070;20.804;2023-02-03T02:23:50;3.00;;;1.70;;
75535;SDS011;64119;52.070;20.804;2023-02-03T02:34:34;3.80;;;1.70;;
75535;SDS011;64119;52.070;20.804;2023-02-03T02:40:14;3.80;;;1.50;;
75535;SDS011;64119;52.070;20.804;2023-02-03T02:42:46;3.10;;;1.80;;
75535;SDS011;64119;52.070;20.804;2023-02-03T02:45:26;3.90;;;1.80;;
75535;SDS011;64119;52.070;20.804;2023-02-03T02:48:01;3.60;;;1.90;;
75535;SDS011;64119;52.070;20.804;2023-02-03T02:50:36;3.20;;;1.60;;
75535;SDS011;64119;52.070;20.804;2023-02-03T02:53:08;2.60;;;1.60;;
75535;SDS011;64119;52.070;20.804;2023-02-03T02:55:41;4.10;;;1.60;;
75535;SDS011;64119;52.070;20.804;2023-02-03T02:58:12;3.20;;;1.40;;
75535;SDS011;64119;52.070;20.804;2023-02-03T03:00:43;4.00;;;1.40;;
75535;SDS011;64119;52.070;20.804;2023-02-03T03:03:16;3.50;;;1.70;;
75535;SDS011;64119;52.070;20.804;2023-02-03T03:05:58;1.80;;;0.80;;
75535;SDS011;64119;52.070;20.804;2023-02-03T03:08:52;2.40;;;1.40;;
75535;SDS011;64119;52.070;20.804;2023-02-03T03:11:40;2.60;;;1.30;;
75535;SDS011;64119;52.070;20.804;2023-02-03T03:14:14;3.70;;;1.50;;
75535;SDS011;64119;52.070;20.804;2023-02-03T03:16:47;3.60;;;1.50;;
75535;SDS011;64119;52.070;20.804;2023-02-03T03:19:22;3.00;;;1.40;;
75535;SDS011;64119;52.070;20.804;2023-02-03T03:21:54;3.70;;;1.30;;
75535;SDS011;64119;52.070;20.804;2023-02-03T03:24:32;3.30;;;1.80;;
75535;SDS011;64119;52.070;20.804;2023-02-03T03:27:07;2.70;;;1.60;;
75535;SDS011;64119;52.070;20.804;2023-02-03T03:29:59;2.70;;;1.20;;
75535;SDS011;64119;52.070;20.804;2023-02-03T03:32:34;3.00;;;1.60;;
75535;SDS011;64119;52.070;20.804;2023-02-03T03:35:02;3.60;;;1.60;;
75535;SDS011;64119;52.070;20.804;2023-02-03T03:37:40;3.80;;;1.80;;
75535;SDS011;64119;52.070;20.804;2023-02-03T03:40:16;2.50;;;1.30;;
75535;SDS011;64119;52.070;20.804;2023-02-03T03:43:00;3.10;;;1.60;;
75535;SDS011;64119;52.070;20.804;2023-02-03T03:45:39;2.70;;;1.50;;
75535;SDS011;64119;52.070;20.804;2023-02-03T03:48:16;3.40;;;1.90;;
75535;SDS011;64119;52.070;20.804;2023-02-03T03:50:50;3.60;;;1.60;;
75535;SDS011;64119;52.070;20.804;2023-02-03T03:53:25;2.40;;;1.60;;
75535;SDS011;64119;52.070;20.804;2023-02-03T03:55:55;3.90;;;1.70;;
75535;SDS011;64119;52.070;20.804;2023-02-03T03:58:28;3.10;;;1.80;;
75535;SDS011;64119;52.070;20.804;2023-02-03T04:01:01;3.30;;;1.60;;
75535;SDS011;64119;52.070;20.804;2023-02-03T04:03:36;3.30;;;1.90;;
75535;SDS011;64119;52.070;20.804;2023-02-03T04:06:11;3.40;;;1.10;;
75535;SDS011;64119;52.070;20.804;2023-02-03T04:08:39;4.40;;;1.90;;
75535;SDS011;64119;52.070;20.804;2023-02-03T04:11:07;2.90;;;1.70;;
75535;SDS011;64119;52.070;20.804;2023-02-03T04:13:35;3.90;;;1.70;;
75535;SDS011;64119;52.070;20.804;2023-02-03T04:16:03;4.80;;;2.10;;
75535;SDS011;64119;52.070;20.804;2023-02-03T04:18:31;4.30;;;1.40;;
75535;SDS011;64119;52.070;20.804;2023-02-03T04:20:59;3.30;;;1.60;;
75535;SDS011;64119;52.070;20.804;2023-02-03T04:23:27;3.80;;;1.50;;
75535;SDS011;64119;52.070;20.804;2023-02-03T04:25:55;3.10;;;2.00;;
75535;SDS011;64119;52.070;20.804;2023-02-03T04:28:23;4.10;;;1.50;;
75535;SDS011;64119;52.070;20.804;2023-02-03T04:30:50;3.40;;;1.50;;
75535;SDS011;64119;52.070;20.804;2023-02-03T04:33:18;3.40;;;1.50;;
75535;SDS011;64119;52.070;20.804;2023-02-03T04:35:46;3.40;;;1.90;;
75535;SDS011;64119;52.070;20.804;2023-02-03T04:38:14;5.50;;;2.00;;
75535;SDS011;64119;52.070;20.804;2023-02-03T04:40:41;3.20;;;2.00;;
75535;SDS011;64119;52.070;20.804;2023-02-03T04:43:11;4.00;;;2.00;;
75535;SDS011;64119;52.070;20.804;2023-02-03T04:45:40;3.70;;;1.80;;
75535;SDS011;64119;52.070;20.804;2023-02-03T04:48:08;7.40;;;2.20;;
75535;SDS011;64119;52.070;20.804;2023-02-03T04:50:36;7.40;;;2.50;;
75535;SDS011;64119;52.070;20.804;2023-02-03T04:53:04;4.80;;;2.50;;
75535;SDS011;64119;52.070;20.804;2023-02-03T04:55:32;5.20;;;2.40;;
75535;SDS011;64119;52.070;20.804;2023-02-03T04:58:00;3.80;;;2.40;;
75535;SDS011;64119;52.070;20.804;2023-02-03T05:00:28;5.60;;;2.90;;
75535;SDS011;64119;52.070;20.804;2023-02-03T05:02:56;6.00;;;2.80;;
75535;SDS011;64119;52.070;20.804;2023-02-03T05:05:24;3.80;;;2.20;;
75535;SDS011;64119;52.070;20.804;2023-02-03T05:07:52;4.30;;;2.20;;
75535;SDS011;64119;52.070;20.804;2023-02-03T05:10:20;5.00;;;2.40;;
75535;SDS011;64119;52.070;20.804;2023-02-03T05:12:48;4.60;;;2.40;;
75535;SDS011;64119;52.070;20.804;2023-02-03T05:15:15;6.00;;;2.60;;
75535;SDS011;64119;52.070;20.804;2023-02-03T05:17:43;5.80;;;2.90;;
75535;SDS011;64119;52.070;20.804;2023-02-03T05:20:11;3.20;;;2.20;;
75535;SDS011;64119;52.070;20.804;2023-02-03T05:22:39;3.80;;;2.30;;
75535;SDS011;64119;52.070;20.804;2023-02-03T05:25:07;4.30;;;2.20;;
75535;SDS011;64119;52.070;20.804;2023-02-03T05:27:38;4.70;;;2.40;;
75535;SDS011;64119;52.070;20.804;2023-02-03T05:30:07;4.20;;;2.30;;
75535;SDS011;64119;52.070;20.804;2023-02-03T05:32:36;4.20;;;2.30;;
75535;SDS011;64119;52.070;20.804;2023-02-03T05:35:03;4.50;;;2.30;;
75535;SDS011;64119;52.070;20.804;2023-02-03T05:37:31;6.10;;;3.10;;
75535;SDS011;64119;52.070;20.804;2023-02-03T05:39:59;2.90;;;1.80;;
75535;SDS011;64119;52.070;20.804;2023-02-03T05:42:47;4.00;;;1.80;;
75535;SDS011;64119;52.070;20.804;2023-02-03T05:45:16;4.00;;;1.90;;
75535;SDS011;64119;52.070;20.804;2023-02-03T05:47:45;3.80;;;1.70;;
75535;SDS011;64119;52.070;20.804;2023-02-03T05:50:12;3.90;;;1.90;;
75535;SDS011;64119;52.070;20.804;2023-02-03T05:52:40;3.70;;;1.60;;
75535;SDS011;64119;52.070;20.804;2023-02-03T05:55:08;3.80;;;2.10;;
75535;SDS011;64119;52.070;20.804;2023-02-03T05:57:36;4.40;;;1.80;;
75535;SDS011;64119;52.070;20.804;2023-02-03T06:00:05;4.60;;;2.30;;
75535;SDS011;64119;52.070;20.804;2023-02-03T06:02:38;6.40;;;2.60;;
75535;SDS011;64119;52.070;20.804;2023-02-03T06:05:05;3.70;;;2.00;;
75535;SDS011;64119;52.070;20.804;2023-02-03T06:07:33;5.90;;;1.80;;
75535;SDS011;64119;52.070;20.804;2023-02-03T06:10:02;4.80;;;2.30;;
75535;SDS011;64119;52.070;20.804;2023-02-03T06:12:29;4.50;;;2.00;;
75535;SDS011;64119;52.070;20.804;2023-02-03T06:14:57;6.80;;;2.70;;
75535;SDS011;64119;52.070;20.804;2023-02-03T06:17:25;6.70;;;2.20;;
75535;SDS011;64119;52.070;20.804;2023-02-03T06:19:53;4.80;;;1.90;;
75535;SDS011;64119;52.070;20.804;2023-02-03T06:22:20;2.50;;;1.80;;
75535;SDS011;64119;52.070;20.804;2023-02-03T06:24:48;5.10;;;2.20;;
75535;SDS011;64119;52.070;20.804;2023-02-03T06:27:16;5.00;;;2.30;;
75535;SDS011;64119;52.070;20.804;2023-02-03T06:29:44;3.40;;;1.80;;
75535;SDS011;64119;52.070;20.804;2023-02-03T06:32:12;4.10;;;2.00;;
75535;SDS011;64119;52.070;20.804;2023-02-03T06:34:39;3.50;;;1.80;;
75535;SDS011;64119;52.070;20.804;2023-02-03T06:37:07;4.10;;;2.00;;
75535;SDS011;64119;52.070;20.804;2023-02-03T06:39:35;3.80;;;1.40;;
75535;SDS011;64119;52.070;20.804;2023-02-03T06:42:03;3.20;;;1.80;;
75535;SDS011;64119;52.070;20.804;2023-02-03T06:44:31;3.00;;;1.70;;
75535;SDS011;64119;52.070;20.804;2023-02-03T06:46:58;2.50;;;1.40;;
75535;SDS011;64119;52.070;20.804;2023-02-03T06:49:28;7.40;;;2.40;;
75535;SDS011;64119;52.070;20.804;2023-02-03T06:51:56;4.50;;;1.80;;
75535;SDS011;64119;52.070;20.804;2023-02-03T06:54:24;6.00;;;2.30;;
75535;SDS011;64119;52.070;20.804;2023-02-03T06:56:53;3.00;;;1.90;;
75535;SDS011;64119;52.070;20.804;2023-02-03T06:59:21;5.80;;;2.30;;
75535;SDS011;64119;52.070;20.804;2023-02-03T07:01:49;3.10;;;1.60;;
75535;SDS011;64119;52.070;20.804;2023-02-03T07:04:16;5.40;;;2.00;;
75535;SDS011;64119;52.070;20.804;2023-02-03T07:06:44;7.40;;;3.30;;
75535;SDS011;64119;52.070;20.804;2023-02-03T07:09:12;4.30;;;2.00;;
75535;SDS011;64119;52.070;20.804;2023-02-03T07:11:40;7.30;;;3.00;;
75535;SDS011;64119;52.070;20.804;2023-02-03T07:14:08;5.40;;;2.10;;
75535;SDS011;64119;52.070;20.804;2023-02-03T07:16:36;4.50;;;2.30;;
75535;SDS011;64119;52.070;20.804;2023-02-03T07:19:04;3.70;;;1.90;;
75535;SDS011;64119;52.070;20.804;2023-02-03T07:21:32;3.00;;;1.50;;
75535;SDS011;64119;52.070;20.804;2023-02-03T07:23:59;9.50;;;2.20;;
75535;SDS011;64119;52.070;20.804;2023-02-03T07:26:29;3.80;;;2.00;;
75535;SDS011;64119;52.070;20.804;2023-02-03T07:28:57;4.80;;;2.10;;
75535;SDS011;64119;52.070;20.804;2023-02-03T07:31:27;3.10;;;1.70;;
75535;SDS011;64119;52.070;20.804;2023-02-03T07:33:55;3.20;;;1.30;;
75535;SDS011;64119;52.070;20.804;2023-02-03T07:36:23;3.20;;;1.30;;
75535;SDS011;64119;52.070;20.804;2023-02-03T07:38:50;3.50;;;1.60;;
75535;SDS011;64119;52.070;20.804;2023-02-03T07:41:18;2.80;;;1.70;;
75535;SDS011;64119;52.070;20.804;2023-02-03T07:43:46;4.30;;;1.70;;
75535;SDS011;64119;52.070;20.804;2023-02-03T07:46:14;3.40;;;1.70;;
75535;SDS011;64119;52.070;20.804;2023-02-03T07:48:42;3.70;;;1.70;;
75535;SDS011;64119;52.070;20.804;2023-02-03T07:51:10;3.20;;;1.50;;
75535;SDS011;64119;52.070;20.804;2023-02-03T07:53:38;3.80;;;1.40;;
75535;SDS011;64119;52.070;20.804;2023-02-03T07:56:06;3.20;;;1.90;;
75535;SDS011;64119;52.070;20.804;2023-02-03T07:58:34;2.90;;;1.30;;
75535;SDS011;64119;52.070;20.804;2023-02-03T08:01:08;4.80;;;1.60;;
75535;SDS011;64119;52.070;20.804;2023-02-03T08:03:40;3.60;;;1.60;;
75535;SDS011;64119;52.070;20.804;2023-02-03T08:06:09;2.20;;;1.30;;
75535;SDS011;64119;52.070;20.804;2023-02-03T08:08:37;2.80;;;1.30;;
75535;SDS011;64119;52.070;20.804;2023-02-03T08:11:04;2.90;;;1.70;;
75535;SDS011;64119;52.070;20.804;2023-02-03T08:13:32;4.20;;;1.60;;
75535;SDS011;64119;52.070;20.804;2023-02-03T08:16:00;3.20;;;1.60;;
75535;SDS011;64119;52.070;20.804;2023-02-03T08:18:28;2.60;;;1.30;;
75535;SDS011;64119;52.070;20.804;2023-02-03T08:20:59;4.20;;;1.80;;
75535;SDS011;64119;52.070;20.804;2023-02-03T08:23:27;4.60;;;2.20;;
75535;SDS011;64119;52.070;20.804;2023-02-03T08:25:55;4.60;;;1.80;;
75535;SDS011;64119;52.070;20.804;2023-02-03T08:28:22;3.00;;;1.50;;
75535;SDS011;64119;52.070;20.804;2023-02-03T08:30:50;3.10;;;1.20;;
75535;SDS011;64119;52.070;20.804;2023-02-03T08:33:18;5.40;;;1.90;;
75535;SDS011;64119;52.070;20.804;2023-02-03T08:35:47;2.90;;;1.60;;
75535;SDS011;64119;52.070;20.804;2023-02-03T08:38:16;3.70;;;1.70;;
75535;SDS011;64119;52.070;20.804;2023-02-03T08:40:44;3.60;;;1.60;;
75535;SDS011;64119;52.070;20.804;2023-02-03T08:43:11;4.00;;;2.20;;
75535;SDS011;64119;52.070;20.804;2023-02-03T08:45:40;4.20;;;1.80;;
75535;SDS011;64119;52.070;20.804;2023-02-03T08:48:07;2.10;;;1.20;;
75535;SDS011;64119;52.070;20.804;2023-02-03T08:50:35;3.30;;;1.60;;
75535;SDS011;64119;52.070;20.804;2023-02-03T08:53:03;3.80;;;1.90;;
75535;SDS011;64119;52.070;20.804;2023-02-03T08:55:31;3.60;;;1.40;;
75535;SDS011;64119;52.070;20.804;2023-02-03T08:57:59;3.20;;;1.20;;
75535;SDS011;64119;52.070;20.804;2023-02-03T09:00:27;3.70;;;1.70;;
75535;SDS011;64119;52.070;20.804;2023-02-03T09:02:55;4.10;;;1.50;;
75535;SDS011;64119;52.070;20.804;2023-02-03T09:05:23;2.60;;;1.50;;
75535;SDS011;64119;52.070;20.804;2023-02-03T09:07:51;3.20;;;1.40;;
75535;SDS011;64119;52.070;20.804;2023-02-03T09:10:18;2.70;;;1.50;;
75535;SDS011;64119;52.070;20.804;2023-02-03T09:12:46;3.30;;;1.50;;
75535;SDS011;64119;52.070;20.804;2023-02-03T09:15:14;3.50;;;1.60;;
75535;SDS011;64119;52.070;20.804;2023-02-03T09:17:42;2.90;;;1.50;;
75535;SDS011;64119;52.070;20.804;2023-02-03T09:20:10;2.10;;;1.20;;
75535;SDS011;64119;52.070;20.804;2023-02-03T09:22:41;2.50;;;1.20;;
75535;SDS011;64119;52.070;20.804;2023-02-03T09:25:09;3.00;;;1.40;;
75535;SDS011;64119;52.070;20.804;2023-02-03T09:27:37;1.30;;;0.80;;
75535;SDS011;64119;52.070;20.804;2023-02-03T09:30:05;2.30;;;1.40;;
75535;SDS011;64119;52.070;20.804;2023-02-03T09:32:33;2.40;;;1.00;;
75535;SDS011;64119;52.070;20.804;2023-02-03T09:35:01;2.00;;;1.20;;
75535;SDS011;64119;52.070;20.804;2023-02-03T09:37:28;2.00;;;1.20;;
75535;SDS011;64119;52.070;20.804;2023-02-03T09:39:56;1.70;;;0.80;;
75535;SDS011;64119;52.070;20.804;2023-02-03T09:45:23;2.10;;;0.90;;
75535;SDS011;64119;52.070;20.804;2023-02-03T09:47:56;1.60;;;0.90;;
75535;SDS011;64119;52.070;20.804;2023-02-03T09:50:31;3.40;;;1.30;;
75535;SDS011;64119;52.070;20.804;2023-02-03T09:53:03;1.70;;;0.90;;
75535;SDS011;64119;52.070;20.804;2023-02-03T09:55:39;1.50;;;0.80;;
75535;SDS011;64119;52.070;20.804;2023-02-03T10:00:46;2.10;;;1.00;;
75535;SDS011;64119;52.070;20.804;2023-02-03T10:12:24;1.20;;;0.60;;
75535;SDS011;64119;52.070;20.804;2023-02-03T10:18:02;1.70;;;1.10;;
75535;SDS011;64119;52.070;20.804;2023-02-03T10:20:50;2.20;;;1.10;;
75535;SDS011;64119;52.070;20.804;2023-02-03T10:23:26;3.20;;;1.40;;
75535;SDS011;64119;52.070;20.804;2023-02-03T10:26:05;2.00;;;1.00;;
75535;SDS011;64119;52.070;20.804;2023-02-03T10:28:45;1.50;;;0.90;;
75535;SDS011;64119;52.070;20.804;2023-02-03T10:31:22;1.90;;;1.00;;
75535;SDS011;64119;52.070;20.804;2023-02-03T10:33:57;2.50;;;0.90;;
75535;SDS011;64119;52.070;20.804;2023-02-03T10:36:31;2.90;;;1.20;;
75535;SDS011;64119;52.070;20.804;2023-02-03T10:39:39;2.90;;;1.20;;
75535;SDS011;64119;52.070;20.804;2023-02-03T10:42:11;3.30;;;1.10;;
75535;SDS011;64119;52.070;20.804;2023-02-03T10:44:41;3.70;;;1.00;;
75535;SDS011;64119;52.070;20.804;2023-02-03T10:50:04;2.40;;;1.30;;
75535;SDS011;64119;52.070;20.804;2023-02-03T10:52:42;3.20;;;1.60;;
75535;SDS011;64119;52.070;20.804;2023-02-03T10:57:53;3.70;;;1.50;;
75535;SDS011;64119;52.070;20.804;2023-02-03T11:08:38;4.50;;;1.40;;
75535;SDS011;64119;52.070;20.804;2023-02-03T11:11:11;2.80;;;1.30;;
75535;SDS011;64119;52.070;20.804;2023-02-03T11:16:32;3.50;;;1.50;;
75535;SDS011;64119;52.070;20.804;2023-02-03T11:21:49;1.40;;;1.00;;
75535;SDS011;64119;52.070;20.804;2023-02-03T11:24:21;2.30;;;1.20;;
75535;SDS011;64119;52.070;20.804;2023-02-03T11:29:41;2.50;;;1.30;;
75535;SDS011;64119;52.070;20.804;2023-02-03T11:32:15;2.30;;;1.10;;
75535;SDS011;64119;52.070;20.804;2023-02-03T11:34:55;3.40;;;1.40;;
75535;SDS011;64119;52.070;20.804;2023-02-03T11:37:40;2.50;;;1.30;;
75535;SDS011;64119;52.070;20.804;2023-02-03T11:42:39;3.00;;;1.50;;
75535;SDS011;64119;52.070;20.804;2023-02-03T11:45:12;3.20;;;1.10;;
75535;SDS011;64119;52.070;20.804;2023-02-03T11:47:56;3.80;;;1.70;;
75535;SDS011;64119;52.070;20.804;2023-02-03T11:50:41;5.90;;;1.40;;
75535;SDS011;64119;52.070;20.804;2023-02-03T12:11:47;3.50;;;1.90;;
75535;SDS011;64119;52.070;20.804;2023-02-03T12:17:12;3.30;;;1.70;;
75535;SDS011;64119;52.070;20.804;2023-02-03T12:31:38;2.70;;;1.70;;
75535;SDS011;64119;52.070;20.804;2023-02-03T12:37:46;5.30;;;1.80;;
75535;SDS011;64119;52.070;20.804;2023-02-03T12:40:33;2.90;;;1.50;;
75535;SDS011;64119;52.070;20.804;2023-02-03T12:45:54;3.30;;;1.90;;
75535;SDS011;64119;52.070;20.804;2023-02-03T12:48:39;3.40;;;1.50;;
75535;SDS011;64119;52.070;20.804;2023-02-03T12:51:15;2.30;;;1.50;;
75535;SDS011;64119;52.070;20.804;2023-02-03T12:53:52;3.90;;;1.70;;
75535;SDS011;64119;52.070;20.804;2023-02-03T12:56:25;3.70;;;1.40;;
75535;SDS011;64119;52.070;20.804;2023-02-03T12:59:04;3.10;;;1.80;;
75535;SDS011;64119;52.070;20.804;2023-02-03T13:04:35;2.70;;;1.60;;
75535;SDS011;64119;52.070;20.804;2023-02-03T13:07:15;4.60;;;2.40;;
75535;SDS011;64119;52.070;20.804;2023-02-03T13:10:04;4.20;;;1.50;;
75535;SDS011;64119;52.070;20.804;2023-02-03T13:12:43;3.10;;;1.50;;
75535;SDS011;64119;52.070;20.804;2023-02-03T13:15:23;4.70;;;2.70;;
75535;SDS011;64119;52.070;20.804;2023-02-03T13:20:53;6.20;;;2.30;;
75535;SDS011;64119;52.070;20.804;2023-02-03T13:23:21;6.20;;;2.40;;
75535;SDS011;64119;52.070;20.804;2023-02-03T13:28:44;5.60;;;2.90;;
75535;SDS011;64119;52.070;20.804;2023-02-03T13:44:55;6.00;;;3.40;;
75535;SDS011;64119;52.070;20.804;2023-02-03T13:47:29;5.00;;;2.20;;
75535;SDS011;64119;52.070;20.804;2023-02-03T13:50:00;7.60;;;3.20;;
75535;SDS011;64119;52.070;20.804;2023-02-03T13:52:36;9.90;;;4.40;;
75535;SDS011;64119;52.070;20.804;2023-02-03T13:55:27;5.60;;;3.50;;
75535;SDS011;64119;52.070;20.804;2023-02-03T13:57:59;8.40;;;3.40;;
75535;SDS011;64119;52.070;20.804;2023-02-03T14:05:52;8.50;;;3.50;;
75535;SDS011;64119;52.070;20.804;2023-02-03T14:19:10;7.10;;;2.90;;
75535;SDS011;64119;52.070;20.804;2023-02-03T14:21:45;5.50;;;3.10;;
75535;SDS011;64119;52.070;20.804;2023-02-03T14:24:18;4.30;;;2.30;;
75535;SDS011;64119;52.070;20.804;2023-02-03T14:26:51;9.20;;;4.30;;
75535;SDS011;64119;52.070;20.804;2023-02-03T14:32:08;7.00;;;3.00;;
75535;SDS011;64119;52.070;20.804;2023-02-03T14:34:41;7.10;;;3.10;;
75535;SDS011;64119;52.070;20.804;2023-02-03T14:37:16;10.90;;;4.30;;
75535;SDS011;64119;52.070;20.804;2023-02-03T14:53:59;6.90;;;3.40;;
75535;SDS011;64119;52.070;20.804;2023-02-03T14:59:37;10.20;;;4.00;;
75535;SDS011;64119;52.070;20.804;2023-02-03T15:02:24;8.80;;;4.80;;
75535;SDS011;64119;52.070;20.804;2023-02-03T15:10:13;7.90;;;4.70;;
75535;SDS011;64119;52.070;20.804;2023-02-03T15:12:48;5.90;;;3.50;;
75535;SDS011;64119;52.070;20.804;2023-02-03T15:15:21;8.90;;;4.20;;
75535;SDS011;64119;52.070;20.804;2023-02-03T15:17:58;5.80;;;2.90;;
75535;SDS011;64119;52.070;20.804;2023-02-03T15:20:46;8.60;;;4.40;;
75535;SDS011;64119;52.070;20.804;2023-02-03T15:23:27;5.70;;;2.80;;
75535;SDS011;64119;52.070;20.804;2023-02-03T15:25:57;6.20;;;3.30;;
75535;SDS011;64119;52.070;20.804;2023-02-03T15:28:27;6.20;;;2.20;;
75535;SDS011;64119;52.070;20.804;2023-02-03T15:31:01;3.50;;;1.60;;
75535;SDS011;64119;52.070;20.804;2023-02-03T15:33:36;6.50;;;3.80;;
75535;SDS011;64119;52.070;20.804;2023-02-03T15:36:12;5.80;;;3.70;;
75535;SDS011;64119;52.070;20.804;2023-02-03T15:38:45;9.00;;;3.60;;
75535;SDS011;64119;52.070;20.804;2023-02-03T15:41:22;9.30;;;3.80;;
75535;SDS011;64119;52.070;20.804;2023-02-03T15:43:55;4.80;;;2.80;;
75535;SDS011;64119;52.070;20.804;2023-02-03T15:51:37;5.10;;;2.80;;
75535;SDS011;64119;52.070;20.804;2023-02-03T15:54:12;5.10;;;2.30;;
75535;SDS011;64119;52.070;20.804;2023-02-03T15:56:58;3.50;;;1.90;;
75535;SDS011;64119;52.070;20.804;2023-02-03T15:59:31;9.10;;;4.70;;
75535;SDS011;64119;52.070;20.804;2023-02-03T16:02:10;7.90;;;3.90;;
75535;SDS011;64119;52.070;20.804;2023-02-03T16:04:44;6.70;;;3.60;;
75535;SDS011;64119;52.070;20.804;2023-02-03T16:09:52;5.30;;;2.50;;
75535;SDS011;64119;52.070;20.804;2023-02-03T16:14:59;7.30;;;2.90;;
75535;SDS011;64119;52.070;20.804;2023-02-03T16:20:20;5.10;;;2.10;;
75535;SDS011;64119;52.070;20.804;2023-02-03T16:23:04;4.30;;;2.10;;
75535;SDS011;64119;52.070;20.804;2023-02-03T16:31:49;6.70;;;3.10;;
75535;SDS011;64119;52.070;20.804;2023-02-03T16:34:35;6.90;;;4.10;;
75535;SDS011;64119;52.070;20.804;2023-02-03T16:37:26;4.90;;;2.50;;
75535;SDS011;64119;52.070;20.804;2023-02-03T16:40:19;9.50;;;5.50;;
75535;SDS011;64119;52.070;20.804;2023-02-03T16:43:08;5.60;;;2.70;;
75535;SDS011;64119;52.070;20.804;2023-02-03T16:45:57;5.60;;;3.20;;
75535;SDS011;64119;52.070;20.804;2023-02-03T16:48:45;2.60;;;1.60;;
75535;SDS011;64119;52.070;20.804;2023-02-03T16:51:39;3.60;;;2.20;;
75535;SDS011;64119;52.070;20.804;2023-02-03T16:54:11;4.20;;;2.30;;
75535;SDS011;64119;52.070;20.804;2023-02-03T16:56:40;7.00;;;3.90;;
75535;SDS011;64119;52.070;20.804;2023-02-03T16:59:08;5.20;;;2.50;;
75535;SDS011;64119;52.070;20.804;2023-02-03T17:01:37;6.80;;;3.70;;
75535;SDS011;64119;52.070;20.804;2023-02-03T17:04:05;6.50;;;2.70;;
75535;SDS011;64119;52.070;20.804;2023-02-03T17:06:36;4.80;;;3.10;;
75535;SDS011;64119;52.070;20.804;2023-02-03T17:09:06;3.20;;;2.00;;
75535;SDS011;64119;52.070;20.804;2023-02-03T17:11:34;10.90;;;5.70;;
75535;SDS011;64119;52.070;20.804;2023-02-03T17:14:02;7.60;;;3.70;;
75535;SDS011;64119;52.070;20.804;2023-02-03T17:16:30;8.50;;;4.00;;
75535;SDS011;64119;52.070;20.804;2023-02-03T17:18:59;3.90;;;1.90;;
75535;SDS011;64119;52.070;20.804;2023-02-03T17:21:28;5.80;;;3.10;;
75535;SDS011;64119;52.070;20.804;2023-02-03T17:23:57;7.50;;;3.70;;
75535;SDS011;64119;52.070;20.804;2023-02-03T17:26:26;8.60;;;4.30;;
75535;SDS011;64119;52.070;20.804;2023-02-03T17:28:53;8.20;;;3.60;;
75535;SDS011;64119;52.070;20.804;2023-02-03T17:31:21;6.00;;;3.00;;
75535;SDS011;64119;52.070;20.804;2023-02-03T17:33:50;11.00;;;5.70;;
75535;SDS011;64119;52.070;20.804;2023-02-03T17:36:18;6.60;;;3.20;;
75535;SDS011;64119;52.070;20.804;2023-02-03T17:38:52;12.50;;;4.70;;
75535;SDS011;64119;52.070;20.804;2023-02-03T17:41:41;9.80;;;5.40;;
75535;SDS011;64119;52.070;20.804;2023-02-03T17:44:27;6.40;;;3.20;;
75535;SDS011;64119;52.070;20.804;2023-02-03T17:47:12;6.50;;;3.20;;
75535;SDS011;64119;52.070;20.804;2023-02-03T17:49:58;6.80;;;3.60;;
75535;SDS011;64119;52.070;20.804;2023-02-03T17:52:43;10.20;;;5.60;;
75535;SDS011;64119;52.070;20.804;2023-02-03T17:55:29;7.50;;;4.40;;
75535;SDS011;64119;52.070;20.804;2023-02-03T17:57:58;5.80;;;3.10;;
75535;SDS011;64119;52.070;20.804;2023-02-03T18:00:26;9.70;;;4.80;;
75535;SDS011;64119;52.070;20.804;2023-02-03T18:02:54;10.70;;;4.90;;
75535;SDS011;64119;52.070;20.804;2023-02-03T18:05:24;6.70;;;2.70;;
75535;SDS011;64119;52.070;20.804;2023-02-03T18:07:52;3.20;;;1.90;;
75535;SDS011;64119;52.070;20.804;2023-02-03T18:10:20;4.20;;;3.20;;